Time;durP1;ratioP1;P1;durP2;ratioP2;P2;SDS_P1;SDS_P2;PMS_P1;PMS_P2;Temp;Humidity;BMP_temperature;BMP_pressure;BME280_temperature;BME280_humidity;BME280_pressure;Samples;Min_cycle;Max_cycle;Signal;HPM_P1;HPM_P2
2021/06/05 00:00:21;;;;;;;8.75;6.47;;;;;;;18.13;100.00;98154.03;5051084;28;20419;-81
2021/06/05 00:02:48;;;;;;;8.30;6.30;;;;;;;18.09;100.00;98141.38;5034268;28;20045;-80
2021/06/05 00:05:15;;;;;;;9.70;6.80;;;;;;;18.07;100.00;98149.94;5051436;28;20515;-79
2021/06/05 00:07:42;;;;;;;11.40;6.22;;;;;;;18.09;100.00;98153.16;5049560;28;20049;-82
2021/06/05 00:10:13;;;;;;;8.82;5.75;;;;;;;18.17;100.00;98148.66;5035096;28;20045;-81
2021/06/05 00:12:40;;;;;;;8.07;6.57;;;;;;;17.96;100.00;98148.88;5035438;28;20041;-80
2021/06/05 00:15:18;;;;;;;7.40;6.03;;;;;;;18.07;100.00;98146.44;5055608;28;20469;-80
2021/06/05 00:17:45;;;;;;;9.15;6.13;;;;;;;18.02;100.00;98152.94;5021074;28;20041;-82
2021/06/05 00:20:12;;;;;;;8.25;6.43;;;;;;;18.00;100.00;98149.75;5055656;28;20480;-80
2021/06/05 00:22:39;;;;;;;8.27;6.10;;;;;;;18.03;100.00;98143.59;5038022;28;20118;-80
2021/06/05 00:25:08;;;;;;;9.13;6.53;;;;;;;18.11;100.00;98153.59;5055066;28;20129;-82
2021/06/05 00:27:35;;;;;;;9.25;6.40;;;;;;;18.08;100.00;98153.50;5055579;28;20045;-80
2021/06/05 00:30:05;;;;;;;8.82;6.05;;;;;;;18.04;100.00;98140.47;5057701;28;20044;-82
2021/06/05 00:32:32;;;;;;;12.90;6.80;;;;;;;18.11;100.00;98153.59;5067911;28;20071;-83
2021/06/05 00:34:58;;;;;;;11.50;6.53;;;;;;;18.05;100.00;98146.75;5046546;28;20056;-81
2021/06/05 00:37:25;;;;;;;10.98;6.50;;;;;;;18.03;100.00;98149.06;5042315;28;20604;-80
2021/06/05 00:39:51;;;;;;;15.70;7.47;;;;;;;17.98;100.00;98152.06;5037316;28;20045;-81
2021/06/05 00:42:18;;;;;;;9.80;6.85;;;;;;;17.81;100.00;98142.19;5055614;28;20063;-81
2021/06/05 00:44:45;;;;;;;11.23;6.90;;;;;;;17.85;100.00;98156.81;5054631;28;20036;-81
2021/06/05 00:47:12;;;;;;;9.50;7.05;;;;;;;17.91;100.00;98152.66;5056890;28;20142;-82
2021/06/05 00:49:38;;;;;;;14.15;7.20;;;;;;;17.93;100.00;98149.56;5058212;28;20056;-83
2021/06/05 00:52:05;;;;;;;11.32;7.03;;;;;;;17.95;100.00;98150.00;5057795;28;20044;-81
2021/06/05 00:54:33;;;;;;;9.38;6.75;;;;;;;17.98;100.00;98147.38;5037523;28;20034;-81
2021/06/05 00:57:04;;;;;;;11.20;6.70;;;;;;;17.99;100.00;98148.97;5020398;28;20067;-82
2021/06/05 00:59:31;;;;;;;9.75;6.57;;;;;;;18.00;100.00;98147.03;5037105;28;20103;-82
2021/06/05 01:01:58;;;;;;;8.13;6.63;;;;;;;18.00;100.00;98141.53;5036716;28;20040;-81
2021/06/05 01:04:25;;;;;;;10.40;6.47;;;;;;;18.01;100.00;98143.16;5019902;28;20075;-81
2021/06/05 01:07:06;;;;;;;9.85;7.20;;;;;;;18.04;100.00;98150.63;5036623;28;20549;-81
2021/06/05 01:10:00;;;;;;;12.88;7.63;;;;;;;17.89;100.00;98126.75;5036502;28;20052;-84
2021/06/05 01:12:32;;;;;;;9.43;6.43;;;;;;;17.91;100.00;98144.44;5054335;28;20041;-81
2021/06/05 01:15:14;;;;;;;9.13;6.65;;;;;;;17.92;100.00;98135.06;5034819;28;20052;-82
2021/06/05 01:17:45;;;;;;;13.38;7.75;;;;;;;17.84;100.00;98140.69;5035660;28;20535;-82
2021/06/05 01:20:18;;;;;;;11.90;7.15;;;;;;;17.81;100.00;98141.41;5035347;28;20105;-82
2021/06/05 01:22:52;;;;;;;10.63;6.63;;;;;;;17.90;100.00;98142.84;5035270;28;20103;-83
2021/06/05 01:25:48;;;;;;;12.13;6.50;;;;;;;17.89;100.00;98143.19;5035366;28;20045;-81
2021/06/05 01:28:24;;;;;;;8.40;6.53;;;;;;;17.92;100.00;98140.56;5030751;28;20049;-82
2021/06/05 01:30:56;;;;;;;10.40;7.30;;;;;;;17.90;100.00;98123.69;5038575;28;20067;-82
2021/06/05 01:33:26;;;;;;;12.30;6.82;;;;;;;17.90;100.00;98131.91;5037977;28;20051;-83
2021/06/05 01:35:56;;;;;;;9.95;7.18;;;;;;;17.80;100.00;98124.19;5021884;28;20055;-82
2021/06/05 01:38:25;;;;;;;10.95;7.32;;;;;;;17.83;100.00;98128.94;5063208;28;20830;-85
2021/06/05 01:40:53;;;;;;;13.05;7.97;;;;;;;17.71;100.00;98131.75;5067191;28;20038;-83
2021/06/05 01:43:24;;;;;;;8.27;7.15;;;;;;;17.77;100.00;98124.88;5058134;28;20476;-83
2021/06/05 01:45:52;;;;;;;9.82;7.00;;;;;;;17.81;100.00;98125.75;5039014;28;20063;-82
2021/06/05 01:48:20;;;;;;;9.68;6.72;;;;;;;17.72;100.00;98118.84;5056175;28;20041;-82
2021/06/05 01:50:49;;;;;;;10.63;7.50;;;;;;;17.67;100.00;98106.22;5022455;28;20393;-81
2021/06/05 01:53:29;;;;;;;8.77;6.32;;;;;;;17.70;100.00;98119.22;5037816;28;20056;-82
2021/06/05 01:56:04;;;;;;;12.40;7.47;;;;;;;17.61;100.00;98113.09;5023771;28;20079;-83
2021/06/05 01:58:33;;;;;;;10.63;7.22;;;;;;;17.58;100.00;98104.75;5047194;28;20052;-83
2021/06/05 02:01:00;;;;;;;14.77;7.70;;;;;;;17.51;100.00;98105.34;5042886;28;20052;-83
2021/06/05 02:03:28;;;;;;;9.52;6.93;;;;;;;17.45;100.00;98102.06;5041252;28;20029;-82
2021/06/05 02:05:55;;;;;;;9.95;7.22;;;;;;;17.43;100.00;98104.34;5059399;28;20040;-82
2021/06/05 02:08:27;;;;;;;15.80;7.65;;;;;;;17.42;100.00;98115.66;5023891;28;20447;-82
2021/06/05 02:11:00;;;;;;;12.90;7.53;;;;;;;17.37;100.00;98111.19;5060370;28;20060;-83
2021/06/05 02:13:32;;;;;;;12.27;8.02;;;;;;;17.32;100.00;98102.44;5040411;28;20656;-82
2021/06/05 02:16:04;;;;;;;10.45;7.68;;;;;;;17.35;100.00;98105.28;5040728;28;20041;-82
2021/06/05 02:18:34;;;;;;;16.08;8.30;;;;;;;17.29;100.00;98092.97;5058981;28;20041;-84
2021/06/05 02:21:09;;;;;;;10.93;7.88;;;;;;;17.31;100.00;98109.06;5059366;28;20053;-82
2021/06/05 02:23:48;;;;;;;12.63;7.88;;;;;;;17.18;100.00;98105.56;5059309;28;20487;-83
2021/06/05 02:26:18;;;;;;;12.65;8.23;;;;;;;17.09;100.00;98096.69;5043135;28;20044;-83
2021/06/05 02:28:48;;;;;;;12.55;7.93;;;;;;;17.01;100.00;98099.56;5060666;28;20079;-84
2021/06/05 02:31:15;;;;;;;14.27;7.82;;;;;;;16.93;100.00;98087.59;5042532;28;20053;-83
2021/06/05 02:33:43;;;;;;;9.68;7.25;;;;;;;16.87;100.00;98089.00;5036448;28;20041;-84
2021/06/05 02:36:12;;;;;;;10.45;7.57;;;;;;;16.73;100.00;98085.81;5073592;28;20045;-81
2021/06/05 02:38:41;;;;;;;9.10;7.25;;;;;;;16.59;100.00;98099.06;5071234;28;20041;-82
2021/06/05 02:41:10;;;;;;;16.13;7.75;;;;;;;16.44;100.00;98103.22;5055999;28;20032;-83
2021/06/05 02:43:38;;;;;;;9.05;7.22;;;;;;;16.38;100.00;98107.34;5062604;28;20068;-82
2021/06/05 02:46:14;;;;;;;15.30;7.60;;;;;;;16.38;100.00;98101.88;5042187;28;20036;-83
2021/06/05 02:48:41;;;;;;;9.88;7.32;;;;;;;16.43;100.00;98103.56;5069236;28;20061;-82
2021/06/05 02:51:11;;;;;;;9.68;7.00;;;;;;;16.47;100.00;98096.28;5060010;28;20071;-82
2021/06/05 02:53:38;;;;;;;11.05;6.75;;;;;;;16.41;100.00;98100.38;5057663;28;20075;-83
2021/06/05 02:56:05;;;;;;;12.18;7.82;;;;;;;16.38;100.00;98096.41;5057020;28;20381;-82
2021/06/05 02:58:32;;;;;;;12.13;8.00;;;;;;;16.34;100.00;98092.75;5022706;28;20045;-81
2021/06/05 03:00:59;;;;;;;11.52;7.63;;;;;;;16.32;100.00;98099.69;5056786;28;20638;-82
2021/06/05 03:03:26;;;;;;;11.48;8.48;;;;;;;16.27;100.00;98100.72;5037997;28;20045;-81
2021/06/05 03:05:53;;;;;;;11.50;7.60;;;;;;;16.23;100.00;98097.06;5021757;28;20057;-82
2021/06/05 03:08:33;;;;;;;10.20;7.70;;;;;;;16.25;100.00;98097.53;5037503;28;20106;-83
2021/06/05 03:11:04;;;;;;;10.35;7.82;;;;;;;16.11;100.00;98108.78;5038202;28;20049;-81
2021/06/05 03:13:32;;;;;;;9.55;7.95;;;;;;;16.15;100.00;98112.44;5020889;28;20131;-83
2021/06/05 03:15:58;;;;;;;7.90;6.63;;;;;;;16.27;100.00;98113.56;5038255;28;20048;-81
2021/06/05 03:18:26;;;;;;;8.05;6.90;;;;;;;16.39;100.00;98108.13;5054708;28;20045;-80
2021/06/05 03:20:55;;;;;;;14.75;6.80;;;;;;;16.37;100.00;98108.47;5038119;28;20054;-80
2021/06/05 03:23:24;;;;;;;9.65;6.60;;;;;;;16.39;100.00;98099.94;5033220;28;20051;-83
2021/06/05 03:25:54;;;;;;;8.00;6.72;;;;;;;16.39;100.00;98097.19;5040055;28;20037;-81
2021/06/05 03:28:23;;;;;;;11.38;6.90;;;;;;;16.54;100.00;98086.38;5037027;28;20036;-80
2021/06/05 03:30:51;;;;;;;7.97;6.22;;;;;;;16.53;100.00;98076.59;5037907;28;20045;-80
2021/06/05 03:33:19;;;;;;;8.52;6.47;;;;;;;16.57;100.00;98093.13;5050646;23;20504;-78
2021/06/05 03:35:46;;;;;;;12.07;7.75;;;;;;;16.65;100.00;98098.47;5033979;28;20073;-77
2021/06/05 03:38:13;;;;;;;10.38;6.28;;;;;;;16.60;100.00;98089.69;5034392;28;20046;-77
2021/06/05 03:40:40;;;;;;;10.98;6.75;;;;;;;16.60;100.00;98086.97;5032280;28;20428;-78
2021/06/05 03:43:08;;;;;;;7.78;6.57;;;;;;;16.61;100.00;98077.63;5033741;28;20072;-78
2021/06/05 03:45:34;;;;;;;7.97;6.13;;;;;;;16.70;100.00;98079.09;5028818;28;20045;-80
2021/06/05 03:48:02;;;;;;;8.55;7.15;;;;;;;16.83;100.00;98073.63;5028512;28;20033;-78
2021/06/05 03:50:32;;;;;;;8.15;7.32;;;;;;;16.88;100.00;98078.84;5023617;28;20482;-77
2021/06/05 03:53:00;;;;;;;13.07;7.47;;;;;;;16.95;100.00;98079.06;5025978;28;20041;-78
2021/06/05 03:55:28;;;;;;;11.57;7.65;;;;;;;16.97;100.00;98063.09;5025732;28;20401;-78
2021/06/05 03:57:59;;;;;;;9.48;7.68;;;;;;;17.03;100.00;98070.72;5040289;28;20092;-78
2021/06/05 04:00:31;;;;;;;13.23;8.50;;;;;;;17.12;100.00;98076.03;5033937;28;20128;-78
2021/06/05 04:02:58;;;;;;;10.80;8.23;;;;;;;17.03;100.00;98073.47;5024754;28;20065;-77
2021/06/05 04:05:27;;;;;;;9.27;7.63;;;;;;;17.03;100.00;98081.69;5020657;28;20073;-79
2021/06/05 04:07:54;;;;;;;9.07;7.50;;;;;;;17.11;100.00;98082.69;5032872;28;20045;-78
2021/06/05 04:10:22;;;;;;;11.90;6.85;;;;;;;17.17;100.00;98079.34;5036492;28;20103;-78
2021/06/05 04:12:50;;;;;;;11.75;6.95;;;;;;;17.17;100.00;98089.47;5037193;28;20048;-78
2021/06/05 04:15:18;;;;;;;10.52;7.43;;;;;;;17.18;100.00;98088.34;5037296;28;20045;-79
2021/06/05 04:17:45;;;;;;;12.70;7.90;;;;;;;17.14;100.00;98073.75;5048775;28;20069;-78
2021/06/05 04:20:16;;;;;;;13.25;8.10;;;;;;;17.06;100.00;98078.22;5040270;28;20041;-76
2021/06/05 04:22:42;;;;;;;12.55;7.85;;;;;;;17.15;100.00;98083.56;5033986;28;20041;-76
2021/06/05 04:25:10;;;;;;;9.73;8.35;;;;;;;17.17;100.00;98079.34;5033703;28;20096;-76
2021/06/05 04:27:36;;;;;;;12.52;8.73;;;;;;;17.19;100.00;98081.72;5032964;28;20038;-78
2021/06/05 04:30:06;;;;;;;12.80;10.15;;;;;;;17.15;100.00;98080.84;5033073;28;20334;-76
2021/06/05 04:32:32;;;;;;;16.92;9.68;;;;;;;17.17;100.00;98082.06;5031648;28;20077;-75
2021/06/05 04:34:59;;;;;;;14.38;10.10;;;;;;;17.16;100.00;98077.72;5030778;28;20092;-77
2021/06/05 04:37:25;;;;;;;12.90;9.30;;;;;;;17.13;100.00;98088.59;5024992;28;20061;-77
2021/06/05 04:39:52;;;;;;;15.20;10.68;;;;;;;17.23;100.00;98088.91;5028614;28;20102;-78
2021/06/05 04:42:18;;;;;;;12.23;10.45;;;;;;;17.24;100.00;98090.47;5027788;28;20053;-77
2021/06/05 04:44:45;;;;;;;16.33;11.77;;;;;;;17.32;100.00;98100.50;5035919;28;20032;-78
2021/06/05 04:47:12;;;;;;;17.88;13.13;;;;;;;17.33;100.00;98095.81;5046370;28;20056;-77
2021/06/05 04:49:39;;;;;;;15.25;12.52;;;;;;;17.52;100.00;98097.94;5045428;28;20046;-78
2021/06/05 04:52:06;;;;;;;13.20;11.13;;;;;;;17.73;100.00;98095.81;5048051;28;20061;-78
2021/06/05 04:54:33;;;;;;;14.48;11.32;;;;;;;17.91;100.00;98083.38;5050645;28;20041;-77
2021/06/05 04:57:00;;;;;;;12.75;10.07;;;;;;;18.12;100.00;98070.22;5042224;28;20049;-77
2021/06/05 04:59:27;;;;;;;16.42;9.20;;;;;;;18.30;100.00;98065.97;5055695;28;20141;-78
2021/06/05 05:01:56;;;;;;;13.32;9.60;;;;;;;18.34;100.00;98060.59;5037272;28;20056;-79
2021/06/05 05:04:22;;;;;;;15.98;12.40;;;;;;;18.27;100.00;98050.22;5038608;28;20051;-77
2021/06/05 05:06:49;;;;;;;15.55;13.15;;;;;;;18.36;100.00;98063.75;5036742;28;20064;-79
2021/06/05 05:09:17;;;;;;;17.20;12.25;;;;;;;18.40;100.00;98065.44;5035971;28;20585;-78
2021/06/05 05:11:44;;;;;;;16.13;10.70;;;;;;;18.45;100.00;98054.19;5036450;28;20037;-78
2021/06/05 05:14:12;;;;;;;17.60;10.05;;;;;;;18.49;100.00;98054.31;5034248;28;20034;-79
2021/06/05 05:16:39;;;;;;;12.25;9.57;;;;;;;18.33;100.00;98059.78;5035865;28;20046;-78
2021/06/05 05:19:06;;;;;;;12.82;8.93;;;;;;;18.52;100.00;98039.91;5033096;28;20046;-78
2021/06/05 05:21:33;;;;;;;11.38;8.93;;;;;;;18.51;100.00;98054.75;5035367;28;20111;-78
2021/06/05 05:23:59;;;;;;;12.65;8.85;;;;;;;18.64;100.00;98054.28;5034970;28;20099;-78
2021/06/05 05:26:28;;;;;;;14.10;8.50;;;;;;;18.75;100.00;98051.78;5034508;28;20194;-78
2021/06/05 05:28:56;;;;;;;12.70;9.00;;;;;;;18.84;100.00;98054.34;5036902;28;20088;-78
2021/06/05 05:31:27;;;;;;;12.85;8.25;;;;;;;18.78;100.00;98047.53;5020863;28;20407;-77
2021/06/05 05:33:54;;;;;;;12.35;8.85;;;;;;;18.84;100.00;98044.16;5034296;28;20092;-78
2021/06/05 05:36:32;;;;;;;10.10;7.85;;;;;;;18.95;100.00;98047.91;5035813;28;20184;-78
2021/06/05 05:39:00;;;;;;;10.80;8.60;;;;;;;19.02;100.00;98055.53;5031272;28;20064;-77
2021/06/05 05:41:33;;;;;;;10.38;9.00;;;;;;;19.04;100.00;98062.25;5024748;28;20092;-78
2021/06/05 05:44:00;;;;;;;13.52;9.00;;;;;;;19.12;100.00;98057.69;5022144;28;20045;-78
2021/06/05 05:46:28;;;;;;;11.68;8.63;;;;;;;19.16;100.00;98058.56;5023503;28;20049;-78
2021/06/05 05:48:55;;;;;;;10.98;8.65;;;;;;;19.10;100.00;98070.97;5024656;28;20041;-78
2021/06/05 05:51:23;;;;;;;13.35;9.18;;;;;;;19.17;100.00;98077.44;5021940;28;20299;-81
2021/06/05 05:53:51;;;;;;;10.35;8.38;;;;;;;19.25;100.00;98067.38;5033023;28;20092;-78
2021/06/05 05:56:21;;;;;;;14.48;8.35;;;;;;;19.14;100.00;98075.41;5022468;28;20076;-78
2021/06/05 05:58:50;;;;;;;11.90;8.40;;;;;;;19.12;100.00;98083.19;5020614;28;20415;-79
2021/06/05 06:01:20;;;;;;;12.60;8.48;;;;;;;19.33;100.00;98071.84;5023761;28;20045;-78
2021/06/05 06:03:48;;;;;;;11.02;8.38;;;;;;;19.40;100.00;98074.78;5023275;28;20048;-79
2021/06/05 06:06:16;;;;;;;16.83;8.45;;;;;;;19.37;100.00;98074.69;5022000;28;20053;-78
2021/06/05 06:08:43;;;;;;;15.70;8.10;;;;;;;19.39;100.00;98066.91;5026778;28;20067;-79
2021/06/05 06:11:12;;;;;;;10.80;8.07;;;;;;;19.28;100.00;98070.19;5033488;28;20049;-79
2021/06/05 06:13:40;;;;;;;8.88;7.65;;;;;;;19.73;100.00;98077.78;5032463;28;20054;-77
2021/06/05 06:16:10;;;;;;;12.13;7.88;;;;;;;19.84;100.00;98070.56;5031512;28;20056;-80
2021/06/05 06:18:39;;;;;;;11.18;7.82;;;;;;;19.97;100.00;98076.66;5031682;28;20068;-80
2021/06/05 06:21:08;;;;;;;11.73;7.65;;;;;;;19.80;100.00;98077.13;5013542;28;20038;-79
2021/06/05 06:23:37;;;;;;;11.18;7.55;;;;;;;19.97;100.00;98075.88;5011995;28;20053;-77
2021/06/05 06:26:18;;;;;;;12.20;7.28;;;;;;;20.35;100.00;98082.06;5018790;28;20069;-78
2021/06/05 06:28:46;;;;;;;10.48;7.30;;;;;;;20.51;100.00;98079.19;5036714;28;20060;-80
2021/06/05 06:31:15;;;;;;;10.68;7.20;;;;;;;20.84;100.00;98073.00;5053254;28;20051;-77
2021/06/05 06:33:43;;;;;;;9.27;7.32;;;;;;;20.57;100.00;98077.69;5034579;28;20060;-78
2021/06/05 06:36:11;;;;;;;12.38;7.50;;;;;;;20.18;100.00;98090.78;5013250;28;20046;-78
2021/06/05 06:38:42;;;;;;;10.05;7.45;;;;;;;20.60;100.00;98079.72;5024256;28;20415;-78
2021/06/05 06:41:13;;;;;;;8.10;6.32;;;;;;;20.98;100.00;98070.47;5018289;28;20463;-78
2021/06/05 06:43:40;;;;;;;8.73;6.63;;;;;;;21.09;100.00;98068.66;5020480;28;20048;-78
2021/06/05 06:46:13;;;;;;;6.95;5.50;;;;;;;21.56;100.00;98071.63;5021333;28;20042;-78
2021/06/05 06:48:40;;;;;;;9.52;5.22;;;;;;;21.60;100.00;98072.44;5020343;28;20045;-77
2021/06/05 06:51:06;;;;;;;11.38;5.65;;;;;;;21.79;100.00;98079.75;5018389;28;20057;-78
2021/06/05 06:53:36;;;;;;;8.32;5.60;;;;;;;21.77;100.00;98073.03;5016752;28;20057;-77
2021/06/05 06:56:04;;;;;;;10.45;6.18;;;;;;;21.98;100.00;98071.31;5022402;28;20451;-78
2021/06/05 06:58:32;;;;;;;7.05;5.55;;;;;;;22.11;100.00;98071.84;5020044;28;20045;-78
2021/06/05 07:00:59;;;;;;;9.32;5.10;;;;;;;22.40;100.00;98075.66;5026787;28;20060;-77
2021/06/05 07:03:27;;;;;;;8.90;5.50;;;;;;;22.59;100.00;98075.41;5020025;28;20081;-78
2021/06/05 07:05:53;;;;;;;7.30;5.40;;;;;;;22.61;100.00;98073.06;5019694;28;20042;-78
2021/06/05 07:08:22;;;;;;;6.78;5.38;;;;;;;22.81;100.00;98066.13;5020801;28;20040;-77
2021/06/05 07:10:54;;;;;;;7.93;6.10;;;;;;;22.60;100.00;98079.75;5021925;28;20080;-77
2021/06/05 07:13:22;;;;;;;9.73;5.95;;;;;;;22.78;100.00;98067.69;4996425;28;20046;-77
2021/06/05 07:15:49;;;;;;;7.50;5.72;;;;;;;23.00;100.00;98068.59;5009281;28;20532;-77
2021/06/05 07:18:18;;;;;;;9.15;5.78;;;;;;;23.21;100.00;98065.97;5016771;28;20236;-77
2021/06/05 07:20:47;;;;;;;10.48;5.72;;;;;;;23.38;100.00;98070.78;5030364;28;20045;-76
2021/06/05 07:23:15;;;;;;;6.93;5.45;;;;;;;23.27;100.00;98064.41;5031100;28;20052;-75
2021/06/05 07:25:42;;;;;;;9.10;6.47;;;;;;;23.14;100.00;98068.69;5032291;28;20079;-74
2021/06/05 07:28:31;;;;;;;10.40;6.38;;;;;;;23.47;100.00;98075.97;5033270;28;20064;-76
2021/06/05 07:31:04;;;;;;;8.20;5.47;;;;;;;23.23;100.00;98069.13;5030895;28;20578;-78
2021/06/05 07:33:31;;;;;;;7.80;5.35;;;;;;;23.37;100.00;98066.47;5029687;28;20087;-79
2021/06/05 07:35:58;;;;;;;7.88;5.00;;;;;;;23.70;100.00;98072.88;5038929;28;20107;-80
2021/06/05 07:38:27;;;;;;;7.15;4.90;;;;;;;24.12;100.00;98061.97;5012046;28;20059;-75
2021/06/05 07:40:55;;;;;;;8.05;4.95;;;;;;;24.41;100.00;98068.31;5027420;28;20049;-77
2021/06/05 07:43:25;;;;;;;11.20;5.00;;;;;;;24.47;100.00;98072.25;5028288;28;20053;-78
2021/06/05 07:45:54;;;;;;;8.32;5.13;;;;;;;24.54;100.00;98058.44;5025555;28;20050;-77
2021/06/05 07:48:25;;;;;;;7.72;4.80;;;;;;;24.89;100.00;98068.69;5029066;28;20045;-78
2021/06/05 07:50:52;;;;;;;25.33;5.35;;;;;;;24.75;100.00;98061.94;5032158;28;20157;-77
2021/06/05 07:53:19;;;;;;;7.57;3.00;;;;;;;25.36;100.00;98065.41;5032053;28;20049;-77
2021/06/05 07:55:46;;;;;;;6.05;3.38;;;;;;;25.23;100.00;98070.59;5046880;28;20163;-78
2021/06/05 07:58:12;;;;;;;8.07;3.90;;;;;;;25.34;100.00;98062.25;5049181;28;20059;-77
2021/06/05 08:00:40;;;;;;;8.35;3.65;;;;;;;25.18;100.00;98065.47;5044067;28;20042;-77
2021/06/05 08:03:08;;;;;;;8.55;3.67;;;;;;;25.35;100.00;98061.03;5023924;28;20057;-77
2021/06/05 08:05:36;;;;;;;6.82;4.20;;;;;;;25.45;100.00;98065.75;5045562;28;20056;-77
2021/06/05 08:08:05;;;;;;;9.30;5.32;;;;;;;25.54;100.00;98060.59;5048764;28;20075;-77
2021/06/05 08:10:32;;;;;;;8.35;4.65;;;;;;;25.39;100.00;98064.59;5048985;28;20053;-77
2021/06/05 08:12:59;;;;;;;10.13;4.07;;;;;;;25.57;100.00;98072.88;5049273;28;20099;-78
2021/06/05 08:15:30;;;;;;;6.50;4.15;;;;;;;25.14;100.00;98067.44;5046683;28;20116;-78
2021/06/05 08:17:57;;;;;;;6.68;4.03;;;;;;;24.96;100.00;98071.47;5028954;28;20079;-76
2021/06/05 08:20:36;;;;;;;5.70;4.50;;;;;;;24.71;100.00;98052.06;5029006;28;20103;-74
2021/06/05 08:23:06;;;;;;;7.05;4.35;;;;;;;24.70;100.00;98059.59;5026417;28;20128;-77
2021/06/05 08:25:34;;;;;;;10.13;4.70;;;;;;;24.69;100.00;98049.72;5012028;28;20050;-77
2021/06/05 08:28:02;;;;;;;9.90;5.10;;;;;;;24.42;100.00;98054.06;5022087;28;20060;-81
2021/06/05 08:30:35;;;;;;;8.25;5.07;;;;;;;24.80;100.00;98048.94;5039813;28;20049;-79
2021/06/05 08:33:02;;;;;;;7.93;4.90;;;;;;;24.64;100.00;98050.13;5021712;28;20045;-80
2021/06/05 08:35:29;;;;;;;6.43;5.15;;;;;;;24.84;100.00;98046.94;5038624;28;20076;-78
2021/06/05 08:37:58;;;;;;;8.07;5.10;;;;;;;25.37;100.00;98053.91;5050318;28;20417;-78
2021/06/05 08:40:39;;;;;;;9.18;5.22;;;;;;;25.06;100.00;98052.03;5074433;28;20492;-77
2021/06/05 08:43:08;;;;;;;7.90;5.28;;;;;;;25.46;100.00;98045.19;5056651;28;20603;-77
2021/06/05 08:45:35;;;;;;;5.70;4.68;;;;;;;25.93;100.00;98043.75;5059494;28;20458;-78
2021/06/05 08:48:05;;;;;;;5.35;4.50;;;;;;;25.70;100.00;98051.81;5041032;28;20046;-77
2021/06/05 08:50:31;;;;;;;7.32;5.60;;;;;;;25.59;100.00;98042.75;5016524;28;20080;-77
2021/06/05 08:53:21;;;;;;;5.85;4.88;;;;;;;25.45;100.00;98043.56;5015075;28;20115;-77
2021/06/05 08:55:51;;;;;;;8.43;5.40;;;;;;;26.02;100.00;98047.66;5016239;28;20373;-78
2021/06/05 08:58:29;;;;;;;7.13;5.43;;;;;;;25.57;100.00;98048.72;5023387;28;20045;-78
2021/06/05 09:01:22;;;;;;;9.15;6.28;;;;;;;26.15;100.00;98039.66;5034795;28;20543;-78
2021/06/05 09:03:59;;;;;;;11.82;6.57;;;;;;;26.46;100.00;98044.16;5033225;28;20049;-78
2021/06/05 09:06:36;;;;;;;21.88;7.25;;;;;;;25.77;100.00;98041.47;5033896;28;20049;-77
2021/06/05 09:09:07;;;;;;;9.93;6.60;;;;;;;26.29;100.00;98050.66;5033589;28;20512;-78
2021/06/05 09:11:34;;;;;;;14.98;6.13;;;;;;;26.81;100.00;98045.88;5040429;28;20063;-77
2021/06/05 09:14:01;;;;;;;8.70;6.10;;;;;;;27.00;100.00;98047.25;5055436;28;20132;-78
2021/06/05 09:16:46;;;;;;;7.20;5.65;;;;;;;27.13;100.00;98042.72;5055339;28;20037;-78
2021/06/05 09:19:20;;;;;;;10.65;5.80;;;;;;;27.28;100.00;98046.94;5055962;28;20062;-77
2021/06/05 09:22:07;;;;;;;6.75;6.05;;;;;;;27.45;100.00;98039.63;5054528;28;20049;-78
2021/06/05 09:24:35;;;;;;;8.05;6.30;;;;;;;27.68;100.00;98042.50;5030652;28;20065;-77
2021/06/05 09:27:17;;;;;;;15.13;6.85;;;;;;;27.23;100.00;98041.81;5035879;28;20037;-77
2021/06/05 09:29:55;;;;;;;10.25;7.15;;;;;;;27.26;100.00;98040.19;5037917;28;20053;-77
2021/06/05 09:32:49;;;;;;;12.20;6.30;;;;;;;27.16;100.00;98034.38;5050153;23;20041;-80
2021/06/05 09:35:22;;;;;;;14.02;8.02;;;;;;;27.74;100.00;98049.19;5004443;28;20061;-78
2021/06/05 09:38:10;;;;;;;14.70;7.53;;;;;;;27.68;100.00;98040.50;5011620;28;20150;-82
2021/06/05 09:40:39;;;;;;;12.52;7.22;;;;;;;27.85;100.00;98032.34;5040520;28;20101;-80
2021/06/05 09:43:09;;;;;;;8.32;6.53;;;;;;;27.62;100.00;98046.94;5042813;28;20049;-79
2021/06/05 09:45:39;;;;;;;10.88;6.80;;;;;;;28.67;82.76;98041.03;5048140;28;20044;-81
2021/06/05 09:48:35;;;;;;;11.23;6.95;;;;;;;29.15;78.14;98040.50;5051539;28;20488;-83
2021/06/05 09:51:23;;;;;;;9.00;6.85;;;;;;;28.46;100.00;98042.13;5048001;28;20052;-81
2021/06/05 09:54:14;;;;;;;12.40;8.90;;;;;;;28.28;97.48;98042.44;5028294;28;20392;-81
2021/06/05 09:56:51;;;;;;;17.83;7.68;;;;;;;27.63;100.00;98046.53;5029700;28;20087;-80
2021/06/05 09:59:33;;;;;;;10.85;6.40;;;;;;;29.54;100.00;98034.97;5034444;28;20056;-80
2021/06/05 10:02:06;;;;;;;23.10;8.85;;;;;;;28.29;100.00;98030.06;5036527;28;20060;-78
2021/06/05 10:04:36;;;;;;;16.50;7.55;;;;;;;29.95;79.80;98034.50;5015586;28;20051;-74
2021/06/05 10:07:23;;;;;;;10.13;7.68;;;;;;;30.90;66.06;98037.72;5028045;28;20488;-71
2021/06/05 10:09:59;;;;;;;11.98;8.30;;;;;;;31.60;54.10;98026.63;5045810;28;20052;-70
2021/06/05 10:12:28;;;;;;;9.60;7.90;;;;;;;32.15;54.78;98022.53;5046121;28;20102;-70
2021/06/05 10:15:01;;;;;;;12.13;7.70;;;;;;;32.51;51.53;98016.56;5044270;28;20549;-70
2021/06/05 10:17:40;;;;;;;12.75;6.75;;;;;;;33.90;46.92;98019.56;5027432;28;20090;-70
2021/06/05 10:20:07;;;;;;;11.20;7.15;;;;;;;35.23;42.30;98020.09;5045836;28;20052;-70
2021/06/05 10:22:35;;;;;;;11.25;6.65;;;;;;;32.80;44.19;98024.81;5044696;28;20048;-75
2021/06/05 10:25:16;;;;;;;9.70;7.07;;;;;;;34.46;41.66;98019.31;5046618;28;20055;-76
2021/06/05 10:27:45;;;;;;;10.95;6.70;;;;;;;34.75;39.87;98016.91;5028686;28;20055;-73
2021/06/05 10:30:38;;;;;;;11.05;5.50;;;;;;;35.11;41.26;98009.75;5046572;28;20096;-75
2021/06/05 10:33:07;;;;;;;11.82;6.38;;;;;;;35.40;39.69;97999.56;5027640;28;20076;-73
2021/06/05 10:35:40;;;;;;;9.27;6.45;;;;;;;35.09;40.23;98007.41;5045691;28;20499;-74
2021/06/05 10:38:32;;;;;;;11.52;5.50;;;;;;;34.79;40.90;98003.44;5027721;28;20049;-73
2021/06/05 10:40:58;;;;;;;7.40;6.35;;;;;;;35.97;36.99;97988.47;5020110;28;20061;-71
2021/06/05 10:43:26;;;;;;;13.15;5.70;;;;;;;36.24;38.40;97986.31;5045299;28;20132;-70
2021/06/05 10:45:57;;;;;;;11.73;5.55;;;;;;;35.64;39.54;97996.88;5027620;28;20049;-71
2021/06/05 10:48:31;;;;;;;8.18;5.40;;;;;;;35.69;39.80;97990.59;5027021;28;20053;-70
2021/06/05 10:51:08;;;;;;;13.77;5.90;;;;;;;35.10;40.84;97983.66;5045306;28;20045;-71
2021/06/05 10:53:38;;;;;;;14.10;5.18;;;;;;;36.48;39.74;97977.91;5026929;28;20076;-67
2021/06/05 10:56:29;;;;;;;8.32;5.60;;;;;;;35.92;38.63;97969.38;5045327;28;20057;-69
2021/06/05 10:58:57;;;;;;;6.57;5.35;;;;;;;35.05;40.10;97970.97;5045356;28;20056;-79
2021/06/05 11:01:29;;;;;;;5.70;4.90;;;;;;;36.68;37.15;97972.41;5048474;28;20052;-78
2021/06/05 11:04:03;;;;;;;5.95;5.10;;;;;;;36.67;36.40;97956.75;5053600;28;20041;-79
2021/06/05 11:06:45;;;;;;;11.43;4.97;;;;;;;36.48;36.51;97960.19;5052904;28;20037;-78
2021/06/05 11:09:30;;;;;;;5.82;4.00;;;;;;;37.02;36.54;97959.00;5057983;28;20424;-77
2021/06/05 11:12:12;;;;;;;5.60;4.75;;;;;;;37.65;33.49;97951.94;5052688;28;20044;-79
2021/06/05 11:14:45;;;;;;;7.57;4.22;;;;;;;37.28;34.78;97960.00;5048457;28;20316;-79
2021/06/05 11:17:31;;;;;;;10.23;4.40;;;;;;;36.98;35.03;97958.41;5047393;28;20052;-77
2021/06/05 11:20:08;;;;;;;8.30;4.50;;;;;;;37.94;33.20;97947.03;5043489;28;20063;-78
2021/06/05 11:23:10;;;;;;;11.85;4.60;;;;;;;37.59;32.56;97946.19;5049321;28;20067;-78
2021/06/05 11:25:45;;;;;;;6.35;3.85;;;;;;;38.30;33.67;97936.50;5049699;28;20056;-79
2021/06/05 11:28:35;;;;;;;9.02;4.70;;;;;;;38.15;31.67;97942.19;5023708;28;20527;-79
2021/06/05 11:31:35;;;;;;;4.63;3.97;;;;;;;39.09;30.36;97931.31;5028531;28;20048;-79
2021/06/05 11:34:04;;;;;;;6.90;4.18;;;;;;;38.63;31.69;97934.13;5028730;28;20577;-79
2021/06/05 11:36:45;;;;;;;7.43;4.00;;;;;;;36.91;32.86;97933.38;5047215;28;20048;-78
2021/06/05 11:39:24;;;;;;;7.13;5.15;;;;;;;34.60;36.78;97928.75;5047834;28;20470;-78